Warning: Javascript must be enabled to use all the features on this page!


Page Loading - Please Wait...

Click to hideNews Bulletins

Peak Streamflow for the Nation

USGS 05299750 FLORIDA CREEK NEAR BURR, MN

Yellow Medicine County, Minnesota
Hydrologic Unit Code 07020003
Latitude  44°44'10", Longitude  96°25'10" NAD27
Drainage area 73.3  square miles
Output formats
Table
Graph
Tab-separated file
peakfq (watstore) format
Reselect output format
Water
Year
Date Gage
Height
(feet)
Stream-
flow
(cfs)
1983 1983-04-01 15.442 154
1984 1984-03-29 18.38 471
1991 1991-06-06 14.47 81.0
1992 1992-06-17 20.85 996
1993 1993-06-19 20.01 810
1994 1994-06-23 17.94 455
1995 1995-04-19 19.73 760
1996 1996-03-15 16.15 230
1997 1997-04-01 26.57 2,490
1998 1998-04-08 17.36 371
1999 1999-06-10 14.49 75.0
2000 2000-02-27 13.881 30.02
2001 2001-04-24 24.04 1,740
2002 2002-03-31 16.621 214
2003 2003-03-16 15.831 63.0
2004 2004-08-24 15.19 126
2005 2005-06-13 15.102 118
2006 2006-04-03 16.20 222
2007 2007-03-14 20.79 1,000
2008 2008-05-11 16.35 250
2009 2009-03-26 16.94 319
2010 2010-03-21 21.56 1,090
2011 2011-03-23 20.97 912
2012 2012-05-07 14.314 70.04
2013 2013-06-26 18.92 601
2014 2014-06-19 17.05 332
2015 2015-06-22 17.24 355
2016 2016-08-12 15.53 163
2017 2017-03-21 16.32 212
2018 2018-04-24 21.50 1,040
2019 2019-03-28 23.85 1,600
2020 2020-03-13 17.21 311
?
  Peak Gage-Height Qualification Codes.
?
  Peak Streamflow Qualification Codes.